Time;durP1;ratioP1;P1;durP2;ratioP2;P2;SDS_P1;SDS_P2;PMS_P1;PMS_P2;Temp;Humidity;BMP_temperature;BMP_pressure;BME280_temperature;BME280_humidity;BME280_pressure;Samples;Min_cycle;Max_cycle;Signal;HPM_P1;HPM_P2
2022/05/18 00:01:59;;;;;;;0.70;0.70;;;;;;;;;;5116296;27;20212;-57
2022/05/18 00:04:46;;;;;;;0.80;0.80;;;;;;;;;;5099116;28;20199;-56
2022/05/18 00:07:33;;;;;;;0.87;0.87;;;;;;;;;;5106496;27;20237;-57
2022/05/18 00:10:22;;;;;;;0.70;0.70;;;;;;;;;;5113267;27;20263;-56
2022/05/18 00:13:09;;;;;;;0.70;0.70;;;;;;;;;;5105577;27;20214;-57
2022/05/18 00:15:56;;;;;;;0.80;0.80;;;;;;;;;;5107623;27;20273;-56
2022/05/18 00:18:44;;;;;;;0.70;0.70;;;;;;;;;;5115014;27;20631;-56
2022/05/18 00:21:32;;;;;;;0.70;0.70;;;;;;;;;;5112622;27;20214;-56
2022/05/18 00:24:19;;;;;;;0.67;0.67;;;;;;;;;;5117219;27;20641;-57
2022/05/18 00:27:07;;;;;;;0.73;0.73;;;;;;;;;;5112227;27;20599;-57
2022/05/18 00:29:54;;;;;;;0.63;0.63;;;;;;;;;;5116446;27;20330;-56
2022/05/18 00:32:42;;;;;;;0.50;0.50;;;;;;;;;;5122125;27;20289;-56
2022/05/18 00:35:29;;;;;;;1.67;0.73;;;;;;;;;;5118487;27;20418;-56
2022/05/18 00:38:16;;;;;;;0.60;0.60;;;;;;;;;;5104403;27;20594;-57
2022/05/18 00:41:04;;;;;;;0.50;0.50;;;;;;;;;;5107031;27;20284;-57
2022/05/18 00:43:52;;;;;;;0.40;0.40;;;;;;;;;;5100967;27;20210;-57
2022/05/18 00:46:39;;;;;;;0.60;0.60;;;;;;;;;;5107819;27;20229;-62
2022/05/18 00:49:26;;;;;;;0.40;0.40;;;;;;;;;;5107448;27;20209;-57
2022/05/18 00:52:15;;;;;;;0.57;0.57;;;;;;;;;;5104379;27;20675;-56
2022/05/18 00:55:04;;;;;;;0.60;0.60;;;;;;;;;;5107873;27;20279;-56
2022/05/18 00:57:56;;;;;;;0.50;0.50;;;;;;;;;;5114987;27;20279;-56
2022/05/18 01:00:46;;;;;;;0.40;0.40;;;;;;;;;;5116461;27;20728;-62
2022/05/18 01:03:37;;;;;;;0.50;0.50;;;;;;;;;;5115595;27;20210;-62
2022/05/18 01:06:30;;;;;;;0.73;0.60;;;;;;;;;;5118158;27;20279;-61
2022/05/18 01:09:20;;;;;;;0.60;0.60;;;;;;;;;;5118290;27;20260;-61
2022/05/18 01:12:10;;;;;;;1.80;0.50;;;;;;;;;;5106752;27;20323;-62
2022/05/18 01:15:00;;;;;;;0.50;0.50;;;;;;;;;;5099252;27;20339;-62
2022/05/18 01:17:53;;;;;;;0.50;0.50;;;;;;;;;;5108643;27;20279;-62
2022/05/18 01:20:42;;;;;;;0.50;0.50;;;;;;;;;;5106239;27;20702;-62
2022/05/18 01:23:46;;;;;;;0.40;0.40;;;;;;;;;;5107214;27;20711;-62
2022/05/18 01:26:41;;;;;;;0.60;0.60;;;;;;;;;;5110190;27;20210;-62
2022/05/18 01:29:31;;;;;;;0.40;0.40;;;;;;;;;;5111124;27;20728;-61
2022/05/18 01:32:18;;;;;;;0.40;0.40;;;;;;;;;;5112720;27;20284;-62
2022/05/18 01:35:07;;;;;;;0.77;0.50;;;;;;;;;;5108866;27;20294;-62
2022/05/18 01:37:57;;;;;;;0.33;0.33;;;;;;;;;;5119131;27;20205;-62
2022/05/18 01:40:54;;;;;;;0.93;0.57;;;;;;;;;;5120481;27;20205;-62
2022/05/18 01:43:47;;;;;;;0.43;0.43;;;;;;;;;;5118110;27;20209;-62
2022/05/18 01:46:34;;;;;;;0.63;0.63;;;;;;;;;;5080268;28;20273;-61
2022/05/18 01:49:21;;;;;;;0.53;0.53;;;;;;;;;;5078896;28;20260;-62
2022/05/18 01:52:10;;;;;;;0.40;0.30;;;;;;;;;;5085557;28;20293;-61
2022/05/18 01:54:57;;;;;;;1.20;0.60;;;;;;;;;;5085821;28;20194;-62
2022/05/18 01:57:44;;;;;;;0.53;0.53;;;;;;;;;;5083569;28;20299;-61
2022/05/18 02:00:33;;;;;;;0.57;0.57;;;;;;;;;;5093561;28;20217;-62
2022/05/18 02:03:21;;;;;;;1.50;0.50;;;;;;;;;;5089115;28;20206;-62
2022/05/18 02:06:08;;;;;;;0.40;0.40;;;;;;;;;;5093030;28;20286;-61
2022/05/18 02:08:55;;;;;;;0.60;0.60;;;;;;;;;;5096497;28;20706;-62
2022/05/18 02:11:42;;;;;;;0.37;0.30;;;;;;;;;;5096324;28;20292;-62
2022/05/18 02:14:28;;;;;;;0.50;0.43;;;;;;;;;;5095765;28;20217;-61
2022/05/18 02:17:17;;;;;;;0.60;0.60;;;;;;;;;;5097329;28;20269;-62
2022/05/18 02:20:05;;;;;;;0.40;0.40;;;;;;;;;;5090043;28;20238;-62
2022/05/18 02:22:52;;;;;;;0.57;0.57;;;;;;;;;;5081038;28;20704;-61
2022/05/18 02:25:39;;;;;;;0.47;0.47;;;;;;;;;;5088351;28;20218;-62
2022/05/18 02:28:26;;;;;;;0.40;0.40;;;;;;;;;;5089447;28;20209;-62
2022/05/18 02:31:14;;;;;;;0.80;0.60;;;;;;;;;;5086595;28;20338;-62
2022/05/18 02:34:04;;;;;;;0.70;0.50;;;;;;;;;;5088960;28;20288;-62
2022/05/18 02:36:51;;;;;;;0.40;0.40;;;;;;;;;;5088512;28;20290;-62
2022/05/18 02:39:38;;;;;;;0.50;0.50;;;;;;;;;;5091748;28;20205;-62
2022/05/18 02:42:24;;;;;;;0.60;0.60;;;;;;;;;;5093072;28;20245;-62
2022/05/18 02:45:12;;;;;;;0.50;0.40;;;;;;;;;;5099804;27;20644;-62
2022/05/18 02:47:59;;;;;;;0.77;0.77;;;;;;;;;;5116766;27;20269;-61
2022/05/18 02:50:47;;;;;;;0.47;0.47;;;;;;;;;;5118873;27;20581;-62
2022/05/18 02:53:35;;;;;;;0.90;0.90;;;;;;;;;;5117153;27;20736;-62
2022/05/18 02:56:23;;;;;;;0.40;0.40;;;;;;;;;;5101530;28;20312;-60
2022/05/18 02:59:10;;;;;;;0.50;0.50;;;;;;;;;;5102161;28;20260;-61
2022/05/18 03:01:57;;;;;;;0.57;0.57;;;;;;;;;;5110273;28;20333;-62
2022/05/18 03:04:44;;;;;;;0.40;0.40;;;;;;;;;;5100258;28;20292;-61
2022/05/18 03:07:33;;;;;;;0.40;0.40;;;;;;;;;;5114373;28;20205;-61
2022/05/18 03:10:20;;;;;;;0.63;0.63;;;;;;;;;;5112611;28;20747;-62
2022/05/18 03:13:06;;;;;;;0.70;0.70;;;;;;;;;;5106877;28;20287;-62
2022/05/18 03:15:53;;;;;;;0.60;0.60;;;;;;;;;;5118026;28;20241;-62
2022/05/18 03:18:41;;;;;;;0.50;0.50;;;;;;;;;;5114265;27;20208;-62
2022/05/18 03:24:33;;;;;;;0.70;0.70;;;;;;;;;;5119710;27;20209;-61
2022/05/18 03:27:20;;;;;;;0.60;0.60;;;;;;;;;;5109884;27;20218;-62
2022/05/18 03:30:09;;;;;;;0.57;0.57;;;;;;;;;;5113883;27;20219;-62
2022/05/18 03:32:56;;;;;;;0.50;0.50;;;;;;;;;;5103595;27;20327;-61
2022/05/18 03:35:43;;;;;;;0.97;0.60;;;;;;;;;;5106150;27;20297;-62
2022/05/18 03:38:30;;;;;;;0.60;0.60;;;;;;;;;;5106148;27;20694;-62
2022/05/18 03:41:18;;;;;;;0.60;0.60;;;;;;;;;;5116039;27;20232;-62
2022/05/18 03:44:07;;;;;;;1.17;0.90;;;;;;;;;;5112590;27;20727;-62
2022/05/18 03:46:54;;;;;;;0.60;0.60;;;;;;;;;;5112149;27;20323;-62
2022/05/18 03:49:41;;;;;;;0.70;0.70;;;;;;;;;;5112827;27;20554;-62
2022/05/18 03:52:28;;;;;;;0.60;0.60;;;;;;;;;;5117183;27;20205;-62
2022/05/18 03:55:15;;;;;;;1.00;1.00;;;;;;;;;;5120384;27;20209;-61
2022/05/18 03:58:04;;;;;;;0.57;0.57;;;;;;;;;;5120185;27;20308;-61
2022/05/18 04:00:53;;;;;;;0.60;0.60;;;;;;;;;;5121445;27;20313;-62
2022/05/18 04:03:42;;;;;;;0.70;0.70;;;;;;;;;;5102586;27;20248;-61
2022/05/18 04:06:29;;;;;;;0.70;0.70;;;;;;;;;;5117793;27;20253;-62
2022/05/18 04:09:17;;;;;;;0.50;0.50;;;;;;;;;;5104657;27;20209;-62
2022/05/18 04:12:05;;;;;;;1.33;0.67;;;;;;;;;;5104940;27;20205;-62
2022/05/18 04:14:54;;;;;;;0.80;0.80;;;;;;;;;;5111774;27;20256;-62
2022/05/18 04:17:41;;;;;;;0.60;0.60;;;;;;;;;;5111821;27;20691;-62
2022/05/18 04:20:28;;;;;;;2.30;0.90;;;;;;;;;;5114737;27;20288;-62
2022/05/18 04:23:15;;;;;;;0.53;0.53;;;;;;;;;;5110971;27;20215;-62
2022/05/18 04:26:02;;;;;;;0.60;0.60;;;;;;;;;;5116284;27;20205;-62
2022/05/18 04:28:49;;;;;;;0.70;0.70;;;;;;;;;;5118362;27;20226;-62
2022/05/18 04:31:37;;;;;;;0.70;0.70;;;;;;;;;;5120584;27;20722;-62
2022/05/18 04:34:25;;;;;;;0.53;0.53;;;;;;;;;;5122325;27;20318;-63
2022/05/18 04:37:12;;;;;;;0.60;0.60;;;;;;;;;;5114167;27;20230;-62
2022/05/18 04:39:59;;;;;;;0.43;0.43;;;;;;;;;;5102487;27;20623;-63
2022/05/18 04:42:46;;;;;;;1.37;0.60;;;;;;;;;;5101488;27;20233;-61
2022/05/18 04:45:33;;;;;;;0.53;0.53;;;;;;;;;;5106387;27;20253;-62
2022/05/18 04:48:24;;;;;;;0.80;0.80;;;;;;;;;;5111480;27;20206;-62
2022/05/18 04:51:11;;;;;;;0.80;0.80;;;;;;;;;;5111714;27;20753;-61
2022/05/18 04:53:58;;;;;;;0.50;0.50;;;;;;;;;;5110625;27;20310;-62
2022/05/18 04:56:45;;;;;;;0.60;0.60;;;;;;;;;;5107491;27;20316;-62
2022/05/18 04:59:32;;;;;;;0.60;0.60;;;;;;;;;;5112652;27;20330;-61
2022/05/18 05:02:19;;;;;;;0.70;0.70;;;;;;;;;;5116363;27;20354;-61
2022/05/18 05:05:10;;;;;;;1.03;0.70;;;;;;;;;;5116366;27;20748;-63
2022/05/18 05:07:57;;;;;;;0.70;0.70;;;;;;;;;;5121173;27;20343;-62
2022/05/18 05:10:44;;;;;;;0.63;0.63;;;;;;;;;;5115364;27;20248;-62
2022/05/18 05:13:30;;;;;;;0.80;0.80;;;;;;;;;;5105005;27;20246;-62
2022/05/18 05:16:17;;;;;;;0.53;0.53;;;;;;;;;;5101534;27;20705;-61
2022/05/18 05:19:05;;;;;;;0.90;0.90;;;;;;;;;;5105473;27;20202;-62
2022/05/18 05:21:53;;;;;;;0.80;0.80;;;;;;;;;;5106556;27;20906;-62
2022/05/18 05:24:40;;;;;;;1.37;0.60;;;;;;;;;;5109342;27;20214;-61
2022/05/18 05:27:27;;;;;;;1.17;0.70;;;;;;;;;;5108058;27;20295;-62
2022/05/18 05:30:14;;;;;;;0.63;0.60;;;;;;;;;;5107773;27;20297;-62
2022/05/18 05:33:01;;;;;;;0.83;0.83;;;;;;;;;;5112897;27;20283;-61
2022/05/18 05:35:48;;;;;;;0.77;0.70;;;;;;;;;;5109758;27;20254;-62
2022/05/18 05:38:37;;;;;;;0.57;0.57;;;;;;;;;;5114569;27;20318;-62
2022/05/18 05:41:24;;;;;;;1.23;0.87;;;;;;;;;;5114997;27;20282;-61
2022/05/18 05:44:11;;;;;;;0.60;0.60;;;;;;;;;;5115568;27;20245;-62
2022/05/18 05:47:01;;;;;;;0.83;0.60;;;;;;;;;;5102554;27;20202;-61
2022/05/18 05:49:48;;;;;;;0.60;0.60;;;;;;;;;;5108640;27;20212;-61
2022/05/18 05:52:35;;;;;;;0.60;0.60;;;;;;;;;;5110737;27;20298;-61
2022/05/18 05:55:24;;;;;;;1.23;0.90;;;;;;;;;;5107653;27;20203;-61
2022/05/18 05:58:11;;;;;;;0.60;0.60;;;;;;;;;;5103457;27;20232;-61
2022/05/18 06:00:59;;;;;;;0.90;0.90;;;;;;;;;;5109710;27;20682;-62
2022/05/18 06:03:46;;;;;;;0.60;0.60;;;;;;;;;;5108611;27;20253;-61
2022/05/18 06:06:35;;;;;;;0.90;0.80;;;;;;;;;;5107928;27;20665;-61
2022/05/18 06:09:22;;;;;;;0.60;0.60;;;;;;;;;;5113924;27;20735;-62
2022/05/18 06:12:11;;;;;;;0.53;0.53;;;;;;;;;;5110050;27;20270;-61
2022/05/18 06:14:59;;;;;;;0.70;0.70;;;;;;;;;;5119506;27;20207;-62
2022/05/18 06:17:46;;;;;;;0.70;0.70;;;;;;;;;;5118856;27;20231;-62
2022/05/18 06:20:33;;;;;;;0.60;0.60;;;;;;;;;;5113805;27;20215;-62
2022/05/18 06:23:20;;;;;;;0.70;0.70;;;;;;;;;;5095351;28;20280;-61
2022/05/18 06:26:07;;;;;;;1.83;0.75;;;;;;;;;;5102089;27;20207;-62
2022/05/18 06:28:55;;;;;;;0.63;0.63;;;;;;;;;;5104623;27;20244;-62
2022/05/18 06:31:42;;;;;;;0.80;0.80;;;;;;;;;;5109017;27;20403;-62
2022/05/18 06:34:29;;;;;;;0.70;0.70;;;;;;;;;;5109208;27;20236;-62
2022/05/18 06:37:16;;;;;;;0.95;0.60;;;;;;;;;;5108335;27;20335;-62
2022/05/18 06:40:04;;;;;;;0.60;0.60;;;;;;;;;;5109808;27;20241;-62
2022/05/18 06:42:51;;;;;;;0.50;0.50;;;;;;;;;;5112592;27;20253;-62
2022/05/18 06:45:39;;;;;;;0.50;0.50;;;;;;;;;;5114007;27;20601;-60
2022/05/18 06:48:26;;;;;;;0.50;0.50;;;;;;;;;;5114721;27;20712;-60
2022/05/18 06:51:15;;;;;;;0.55;0.40;;;;;;;;;;5118436;27;20287;-61
2022/05/18 06:54:02;;;;;;;0.50;0.50;;;;;;;;;;5100402;27;20753;-60
2022/05/18 06:56:49;;;;;;;0.73;0.50;;;;;;;;;;5100718;28;20241;-61
2022/05/18 06:59:36;;;;;;;0.60;0.60;;;;;;;;;;5099285;28;20720;-61
2022/05/18 07:02:24;;;;;;;0.50;0.47;;;;;;;;;;5103066;28;20210;-61
2022/05/18 07:05:11;;;;;;;0.60;0.60;;;;;;;;;;5100659;28;20218;-61
2022/05/18 07:07:59;;;;;;;0.70;0.52;;;;;;;;;;5105351;28;20194;-61
2022/05/18 07:10:45;;;;;;;0.55;0.50;;;;;;;;;;5109919;28;20278;-61
2022/05/18 07:13:33;;;;;;;1.17;0.70;;;;;;;;;;5110728;28;20824;-61
2022/05/18 07:16:20;;;;;;;0.40;0.40;;;;;;;;;;5114737;28;20599;-61
2022/05/18 07:19:09;;;;;;;0.70;0.70;;;;;;;;;;5113628;28;20691;-60
2022/05/18 07:21:55;;;;;;;0.70;0.70;;;;;;;;;;5114654;28;20316;-61
2022/05/18 07:24:43;;;;;;;0.50;0.50;;;;;;;;;;5117742;28;20242;-61
2022/05/18 07:27:30;;;;;;;0.63;0.63;;;;;;;;;;5101702;28;20211;-61
2022/05/18 07:30:17;;;;;;;0.45;0.45;;;;;;;;;;5102508;28;20248;-61
2022/05/18 07:33:05;;;;;;;0.50;0.50;;;;;;;;;;5102789;28;20258;-61
2022/05/18 07:35:54;;;;;;;0.40;0.40;;;;;;;;;;5103304;28;21002;-60
2022/05/18 07:38:42;;;;;;;0.40;0.40;;;;;;;;;;5103805;28;20893;-61
2022/05/18 07:41:29;;;;;;;1.40;0.50;;;;;;;;;;5107189;28;20202;-61
2022/05/18 07:44:16;;;;;;;0.73;0.50;;;;;;;;;;5105669;28;20284;-60
2022/05/18 07:47:05;;;;;;;0.35;0.35;;;;;;;;;;5090507;28;20211;-61
2022/05/18 07:49:52;;;;;;;0.50;0.50;;;;;;;;;;5092531;28;20662;-60
2022/05/18 07:52:40;;;;;;;0.45;0.45;;;;;;;;;;5091125;28;20464;-61
2022/05/18 07:55:28;;;;;;;0.32;0.32;;;;;;;;;;5089567;28;20569;-61
2022/05/18 07:58:17;;;;;;;0.52;0.52;;;;;;;;;;5089305;28;20268;-61
2022/05/18 08:01:04;;;;;;;0.60;0.60;;;;;;;;;;5091107;28;20263;-60
2022/05/18 08:03:51;;;;;;;0.30;0.30;;;;;;;;;;5080929;28;20514;-61
2022/05/18 08:06:38;;;;;;;0.50;0.50;;;;;;;;;;5082704;28;20244;-61
2022/05/18 08:09:26;;;;;;;0.50;0.50;;;;;;;;;;5083954;28;20675;-61
2022/05/18 08:15:18;;;;;;;0.43;0.43;;;;;;;;;;5066433;28;20213;-60
2022/05/18 08:18:05;;;;;;;0.70;0.70;;;;;;;;;;5089959;28;20301;-60
2022/05/18 08:20:52;;;;;;;0.50;0.50;;;;;;;;;;5093046;28;20210;-61
2022/05/18 08:23:39;;;;;;;0.32;0.32;;;;;;;;;;5093691;28;20710;-60
2022/05/18 08:26:28;;;;;;;0.68;0.68;;;;;;;;;;5092560;28;20672;-59
2022/05/18 08:29:15;;;;;;;1.17;0.55;;;;;;;;;;5095469;28;20253;-59
2022/05/18 08:32:02;;;;;;;0.60;0.60;;;;;;;;;;5101832;28;20283;-61
2022/05/18 08:34:48;;;;;;;0.60;0.60;;;;;;;;;;5099414;28;20207;-60
2022/05/18 08:37:39;;;;;;;0.50;0.50;;;;;;;;;;5086217;28;20727;-60
2022/05/18 08:40:39;;;;;;;0.55;0.47;;;;;;;;;;5084507;28;20202;-60
2022/05/18 08:43:33;;;;;;;0.40;0.40;;;;;;;;;;5081676;28;20268;-60
2022/05/18 08:46:30;;;;;;;0.30;0.30;;;;;;;;;;5100825;27;20242;-63
2022/05/18 08:49:27;;;;;;;0.50;0.50;;;;;;;;;;5110793;27;20276;-62
2022/05/18 08:52:30;;;;;;;0.60;0.60;;;;;;;;;;5112258;27;20200;-62
2022/05/18 08:55:36;;;;;;;0.50;0.50;;;;;;;;;;5110829;27;20214;-63
2022/05/18 08:58:39;;;;;;;0.52;0.52;;;;;;;;;;5108129;27;20229;-62
2022/05/18 09:01:35;;;;;;;0.40;0.40;;;;;;;;;;5112963;27;20805;-61
2022/05/18 09:04:26;;;;;;;0.60;0.60;;;;;;;;;;5115538;27;20221;-62
2022/05/18 09:07:17;;;;;;;0.50;0.50;;;;;;;;;;5118444;27;20233;-61
2022/05/18 09:10:13;;;;;;;0.50;0.40;;;;;;;;;;5122094;27;20258;-62
2022/05/18 09:13:00;;;;;;;0.70;0.70;;;;;;;;;;5103050;27;20359;-61
2022/05/18 09:15:59;;;;;;;0.45;0.45;;;;;;;;;;5102256;27;20218;-62
2022/05/18 09:18:55;;;;;;;0.50;0.50;;;;;;;;;;5102806;27;20748;-62
2022/05/18 09:21:54;;;;;;;1.27;0.50;;;;;;;;;;5104835;27;20284;-63
2022/05/18 09:25:00;;;;;;;0.77;0.77;;;;;;;;;;5110178;27;20287;-63
2022/05/18 09:28:00;;;;;;;0.30;0.30;;;;;;;;;;5107684;27;20205;-63
2022/05/18 09:30:59;;;;;;;0.75;0.55;;;;;;;;;;5112199;27;20216;-63
2022/05/18 09:34:13;;;;;;;0.40;0.40;;;;;;;;;;5114078;27;20544;-62
2022/05/18 09:37:26;;;;;;;0.77;0.55;;;;;;;;;;5116660;27;20283;-62
2022/05/18 09:40:17;;;;;;;0.40;0.40;;;;;;;;;;5116857;27;20227;-62
2022/05/18 09:43:10;;;;;;;0.73;0.73;;;;;;;;;;5111746;27;20248;-62
2022/05/18 09:45:58;;;;;;;0.60;0.60;;;;;;;;;;5104830;27;20237;-63
2022/05/18 09:48:51;;;;;;;1.13;0.50;;;;;;;;;;5103855;27;20199;-62
2022/05/18 09:51:39;;;;;;;0.50;0.50;;;;;;;;;;5105573;27;20215;-62
2022/05/18 09:54:27;;;;;;;0.50;0.50;;;;;;;;;;5104270;27;20660;-62
2022/05/18 09:57:19;;;;;;;0.50;0.50;;;;;;;;;;5114816;27;20213;-63
2022/05/18 10:00:09;;;;;;;0.60;0.60;;;;;;;;;;5110409;27;20290;-63
2022/05/18 10:09:26;;;;;;;0.38;0.38;;;;;;;;;;5026367;28;20212;-63
2022/05/18 10:12:16;;;;;;;0.50;0.50;;;;;;;;;;5118526;27;20271;-62
2022/05/18 10:15:07;;;;;;;0.35;0.35;;;;;;;;;;5115229;27;20553;-63
2022/05/18 10:17:56;;;;;;;0.40;0.40;;;;;;;;;;5123763;27;20213;-62
2022/05/18 10:21:07;;;;;;;0.50;0.50;;;;;;;;;;5108358;27;20286;-62
2022/05/18 10:23:58;;;;;;;0.73;0.70;;;;;;;;;;5102379;27;20211;-62
2022/05/18 10:26:45;;;;;;;0.40;0.40;;;;;;;;;;5106272;27;20292;-62
2022/05/18 10:29:32;;;;;;;0.55;0.50;;;;;;;;;;5109070;27;20241;-62
2022/05/18 10:32:24;;;;;;;0.50;0.50;;;;;;;;;;5103773;27;20222;-62
2022/05/18 10:35:11;;;;;;;0.50;0.50;;;;;;;;;;5110819;27;20326;-62
2022/05/18 10:38:02;;;;;;;0.40;0.40;;;;;;;;;;5109726;27;20216;-62
2022/05/18 10:40:49;;;;;;;0.47;0.47;;;;;;;;;;5106440;27;20259;-64
2022/05/18 10:43:40;;;;;;;0.40;0.40;;;;;;;;;;5108594;27;20401;-62
2022/05/18 10:46:31;;;;;;;0.50;0.50;;;;;;;;;;5114085;27;20806;-62
2022/05/18 10:49:29;;;;;;;0.50;0.50;;;;;;;;;;5112500;27;20553;-63
2022/05/18 10:52:18;;;;;;;0.68;0.47;;;;;;;;;;5113764;27;20219;-62
2022/05/18 10:55:16;;;;;;;0.77;0.77;;;;;;;;;;5102611;28;20277;-61
2022/05/18 10:58:05;;;;;;;0.60;0.60;;;;;;;;;;5107019;27;20217;-62
2022/05/18 11:00:56;;;;;;;0.50;0.50;;;;;;;;;;5098960;28;20213;-63
2022/05/18 11:03:51;;;;;;;1.33;0.40;;;;;;;;;;5102810;28;20288;-62
2022/05/18 11:06:41;;;;;;;0.77;0.50;;;;;;;;;;5113790;28;20312;-63
2022/05/18 11:09:30;;;;;;;0.40;0.40;;;;;;;;;;5114804;28;20327;-62
2022/05/18 11:12:39;;;;;;;0.60;0.60;;;;;;;;;;5113858;28;20276;-62
2022/05/18 11:15:35;;;;;;;0.57;0.35;;;;;;;;;;5111328;28;20244;-62
2022/05/18 11:18:34;;;;;;;0.65;0.60;;;;;;;;;;5111462;28;20820;-62
2022/05/18 11:21:33;;;;;;;0.40;0.40;;;;;;;;;;5111937;28;20680;-62
2022/05/18 11:24:26;;;;;;;0.57;0.57;;;;;;;;;;5114114;28;20580;-62
2022/05/18 11:27:27;;;;;;;0.50;0.50;;;;;;;;;;5107024;28;20229;-62
2022/05/18 11:30:19;;;;;;;0.70;0.60;;;;;;;;;;5111196;28;20251;-63
2022/05/18 11:33:16;;;;;;;0.50;0.50;;;;;;;;;;5103158;28;20752;-62
2022/05/18 11:36:16;;;;;;;0.40;0.40;;;;;;;;;;5108406;28;20203;-63
2022/05/18 11:39:08;;;;;;;0.63;0.63;;;;;;;;;;5102305;28;20260;-61
2022/05/18 11:42:11;;;;;;;0.47;0.47;;;;;;;;;;5110610;27;20214;-63
2022/05/18 11:45:10;;;;;;;0.50;0.50;;;;;;;;;;5110885;27;20318;-62
2022/05/18 11:48:13;;;;;;;1.10;0.60;;;;;;;;;;5114751;27;20703;-61
2022/05/18 11:51:09;;;;;;;0.30;0.30;;;;;;;;;;5111990;27;20283;-62
2022/05/18 11:54:07;;;;;;;0.68;0.68;;;;;;;;;;5119115;27;20273;-62
2022/05/18 11:57:01;;;;;;;0.50;0.50;;;;;;;;;;5116685;27;20236;-63
2022/05/18 12:00:07;;;;;;;0.75;0.55;;;;;;;;;;5118060;27;20684;-63
2022/05/18 12:03:03;;;;;;;1.00;0.65;;;;;;;;;;5107277;27;20676;-62
2022/05/18 12:06:02;;;;;;;0.90;0.60;;;;;;;;;;5102519;27;20263;-62
2022/05/18 12:09:07;;;;;;;0.50;0.40;;;;;;;;;;5106831;27;20288;-62
2022/05/18 12:12:01;;;;;;;0.60;0.60;;;;;;;;;;5108457;27;20237;-62
2022/05/18 12:14:57;;;;;;;0.47;0.47;;;;;;;;;;5108727;27;20235;-62
2022/05/18 12:17:51;;;;;;;0.50;0.50;;;;;;;;;;5113641;27;20716;-62
2022/05/18 12:20:41;;;;;;;0.57;0.55;;;;;;;;;;5113085;27;20712;-62
2022/05/18 12:23:31;;;;;;;1.15;1.00;;;;;;;;;;5114310;27;20310;-63
2022/05/18 12:26:21;;;;;;;0.40;0.40;;;;;;;;;;5116099;27;20240;-63
2022/05/18 12:29:09;;;;;;;0.85;0.50;;;;;;;;;;5115279;27;20198;-62
2022/05/18 12:31:58;;;;;;;0.50;0.50;;;;;;;;;;5118731;27;20661;-63
2022/05/18 12:34:56;;;;;;;0.50;0.50;;;;;;;;;;5122528;27;20237;-63
2022/05/18 12:37:51;;;;;;;0.57;0.40;;;;;;;;;;5111718;27;20693;-62
2022/05/18 12:40:51;;;;;;;0.50;0.50;;;;;;;;;;5104352;27;20317;-62
2022/05/18 12:43:41;;;;;;;0.50;0.50;;;;;;;;;;5105666;27;20263;-62
2022/05/18 12:46:33;;;;;;;0.57;0.57;;;;;;;;;;5111521;27;20317;-62
2022/05/18 12:49:30;;;;;;;0.50;0.50;;;;;;;;;;5108640;27;20296;-61
2022/05/18 12:52:34;;;;;;;0.70;0.70;;;;;;;;;;5110345;27;20208;-62
2022/05/18 12:55:39;;;;;;;0.40;0.40;;;;;;;;;;5112620;27;20771;-62
2022/05/18 12:58:30;;;;;;;0.43;0.43;;;;;;;;;;5116512;27;20267;-61
2022/05/18 13:01:19;;;;;;;0.50;0.50;;;;;;;;;;5115583;27;20281;-62
2022/05/18 13:04:36;;;;;;;0.68;0.68;;;;;;;;;;5119567;27;20215;-62
2022/05/18 13:07:29;;;;;;;0.45;0.45;;;;;;;;;;5117427;27;20213;-62
2022/05/18 13:10:20;;;;;;;0.43;0.43;;;;;;;;;;5109792;27;20228;-63
2022/05/18 13:13:20;;;;;;;0.47;0.47;;;;;;;;;;5105263;27;20212;-62
2022/05/18 13:16:07;;;;;;;0.52;0.52;;;;;;;;;;5105342;27;20691;-62
2022/05/18 13:18:59;;;;;;;0.55;0.55;;;;;;;;;;5109483;27;20294;-62
2022/05/18 13:21:48;;;;;;;0.30;0.30;;;;;;;;;;5104303;27;20259;-62
2022/05/18 13:24:40;;;;;;;0.45;0.45;;;;;;;;;;5108683;27;20290;-62
2022/05/18 13:27:32;;;;;;;0.93;0.50;;;;;;;;;;5110028;27;20226;-62
2022/05/18 13:30:31;;;;;;;1.60;0.57;;;;;;;;;;5110846;27;20277;-62
2022/05/18 13:33:18;;;;;;;0.40;0.40;;;;;;;;;;5113695;27;20666;-62
2022/05/18 13:36:05;;;;;;;0.43;0.40;;;;;;;;;;5113551;27;20727;-62
2022/05/18 13:38:52;;;;;;;0.40;0.40;;;;;;;;;;5118040;27;20628;-63
2022/05/18 13:41:43;;;;;;;0.83;0.53;;;;;;;;;;5111688;27;20312;-62
2022/05/18 13:44:30;;;;;;;0.50;0.50;;;;;;;;;;5115141;27;20203;-62
2022/05/18 13:47:22;;;;;;;0.50;0.50;;;;;;;;;;5105168;27;20246;-62
2022/05/18 13:50:17;;;;;;;0.50;0.50;;;;;;;;;;5105740;27;20252;-62
2022/05/18 13:53:07;;;;;;;0.50;0.50;;;;;;;;;;5108207;27;20253;-62
2022/05/18 13:55:59;;;;;;;0.60;0.50;;;;;;;;;;5110818;27;20228;-63
2022/05/18 13:58:50;;;;;;;0.37;0.37;;;;;;;;;;5108620;27;20238;-62
2022/05/18 14:01:45;;;;;;;0.40;0.40;;;;;;;;;;5111749;27;20781;-62
2022/05/18 14:04:36;;;;;;;0.40;0.40;;;;;;;;;;5113127;27;20206;-63
2022/05/18 14:07:25;;;;;;;0.55;0.55;;;;;;;;;;5111900;27;20240;-62
2022/05/18 14:10:14;;;;;;;0.70;0.70;;;;;;;;;;5121376;27;20305;-62
2022/05/18 14:13:04;;;;;;;0.43;0.43;;;;;;;;;;5115825;27;20297;-64
2022/05/18 14:15:54;;;;;;;0.43;0.40;;;;;;;;;;5115617;27;20216;-62
2022/05/18 14:18:45;;;;;;;1.23;0.70;;;;;;;;;;5112762;27;20204;-63
2022/05/18 14:21:32;;;;;;;0.77;0.77;;;;;;;;;;5107343;27;20331;-66
2022/05/18 14:24:22;;;;;;;0.50;0.50;;;;;;;;;;5106834;27;20207;-62
2022/05/18 14:27:12;;;;;;;0.47;0.45;;;;;;;;;;5108425;27;20212;-62
2022/05/18 14:30:02;;;;;;;0.50;0.50;;;;;;;;;;5106957;27;20670;-62
2022/05/18 14:32:58;;;;;;;0.40;0.40;;;;;;;;;;5111436;27;20295;-62
2022/05/18 14:35:50;;;;;;;0.60;0.60;;;;;;;;;;5114548;27;20252;-62
2022/05/18 14:38:40;;;;;;;0.50;0.50;;;;;;;;;;5110848;27;20206;-62
2022/05/18 14:41:29;;;;;;;0.70;0.70;;;;;;;;;;5113534;27;20204;-62
2022/05/18 14:44:25;;;;;;;0.53;0.53;;;;;;;;;;5116005;27;20289;-63
2022/05/18 14:47:16;;;;;;;1.20;0.70;;;;;;;;;;5113370;27;20238;-62
2022/05/18 14:50:15;;;;;;;0.53;0.53;;;;;;;;;;5116937;27;20243;-62
2022/05/18 14:53:04;;;;;;;0.47;0.47;;;;;;;;;;5113630;27;20225;-62
2022/05/18 14:55:57;;;;;;;0.70;0.70;;;;;;;;;;5114438;27;20339;-62
2022/05/18 14:58:48;;;;;;;0.50;0.50;;;;;;;;;;5100766;27;20213;-62
2022/05/18 15:01:41;;;;;;;0.63;0.63;;;;;;;;;;5104436;27;20269;-62
2022/05/18 15:04:32;;;;;;;0.80;0.57;;;;;;;;;;5102362;27;20290;-62
2022/05/18 15:07:26;;;;;;;0.50;0.50;;;;;;;;;;5105169;28;20198;-62
2022/05/18 15:10:19;;;;;;;1.67;1.00;;;;;;;;;;5109223;28;20288;-62
2022/05/18 15:13:12;;;;;;;0.60;0.60;;;;;;;;;;5106454;28;20209;-62
2022/05/18 15:16:05;;;;;;;0.60;0.60;;;;;;;;;;5116160;27;20268;-62
2022/05/18 15:18:55;;;;;;;0.93;0.77;;;;;;;;;;5119897;27;20201;-62
2022/05/18 15:21:42;;;;;;;0.80;0.80;;;;;;;;;;5119822;27;21053;-62
2022/05/18 15:24:32;;;;;;;0.57;0.57;;;;;;;;;;5115235;27;20610;-62
2022/05/18 15:27:26;;;;;;;0.80;0.80;;;;;;;;;;5109798;27;20209;-62
2022/05/18 15:30:16;;;;;;;0.70;0.70;;;;;;;;;;5112133;27;20679;-62
2022/05/18 15:33:08;;;;;;;0.60;0.60;;;;;;;;;;5102095;27;20600;-62
2022/05/18 15:35:59;;;;;;;0.93;0.80;;;;;;;;;;5110994;27;20289;-62
2022/05/18 15:38:49;;;;;;;0.60;0.60;;;;;;;;;;5112424;27;20721;-62
2022/05/18 15:41:37;;;;;;;0.60;0.60;;;;;;;;;;5104554;27;20229;-62
2022/05/18 15:44:26;;;;;;;0.60;0.60;;;;;;;;;;5119044;27;20307;-61
2022/05/18 15:47:18;;;;;;;0.70;0.70;;;;;;;;;;5109957;27;20673;-62
2022/05/18 15:50:08;;;;;;;0.87;0.80;;;;;;;;;;5115930;27;20203;-62
2022/05/18 15:52:55;;;;;;;1.03;1.03;;;;;;;;;;5117794;27;20720;-62
2022/05/18 15:55:45;;;;;;;0.70;0.70;;;;;;;;;;5117583;27;20326;-62
2022/05/18 15:58:34;;;;;;;0.90;0.90;;;;;;;;;;5116236;27;20214;-62
2022/05/18 16:01:21;;;;;;;0.87;0.87;;;;;;;;;;5107740;27;20299;-62
2022/05/18 16:04:08;;;;;;;0.73;0.73;;;;;;;;;;5112386;27;20349;-62
2022/05/18 16:06:55;;;;;;;0.90;0.90;;;;;;;;;;5113535;27;20243;-62
2022/05/18 16:09:42;;;;;;;1.03;1.03;;;;;;;;;;5113346;27;20605;-60
2022/05/18 16:12:32;;;;;;;0.73;0.73;;;;;;;;;;5108856;27;20201;-62
2022/05/18 16:15:21;;;;;;;0.70;0.70;;;;;;;;;;5109409;27;20282;-62
2022/05/18 16:18:09;;;;;;;1.20;1.20;;;;;;;;;;5113717;27;20279;-62
2022/05/18 16:20:59;;;;;;;1.00;1.00;;;;;;;;;;5109199;27;20226;-62
2022/05/18 16:23:46;;;;;;;1.80;0.90;;;;;;;;;;5113503;27;20956;-62
2022/05/18 16:26:36;;;;;;;0.80;0.80;;;;;;;;;;5111532;27;20246;-61
2022/05/18 16:29:26;;;;;;;1.20;1.10;;;;;;;;;;5111227;27;20270;-62
2022/05/18 16:32:15;;;;;;;1.17;1.07;;;;;;;;;;5120035;27;20202;-61
2022/05/18 16:35:01;;;;;;;0.83;0.83;;;;;;;;;;5119324;27;20305;-62
2022/05/18 16:37:48;;;;;;;0.87;0.87;;;;;;;;;;5110786;27;20238;-63
2022/05/18 16:40:35;;;;;;;1.50;0.73;;;;;;;;;;5108932;27;20729;-62
2022/05/18 16:43:27;;;;;;;1.20;1.10;;;;;;;;;;5111983;27;20822;-62
2022/05/18 16:46:19;;;;;;;1.10;1.10;;;;;;;;;;5108619;27;20298;-62
2022/05/18 16:49:07;;;;;;;1.07;1.00;;;;;;;;;;5106546;27;20305;-62
2022/05/18 16:51:55;;;;;;;1.20;1.10;;;;;;;;;;5113046;27;20260;-62
2022/05/18 16:54:43;;;;;;;1.00;1.00;;;;;;;;;;5113805;27;20291;-62
2022/05/18 16:57:32;;;;;;;0.80;0.80;;;;;;;;;;5106713;27;20283;-62
2022/05/18 17:00:20;;;;;;;1.07;0.97;;;;;;;;;;5118177;27;20304;-62
2022/05/18 17:03:07;;;;;;;1.20;1.20;;;;;;;;;;5120092;27;20676;-61
2022/05/18 17:06:00;;;;;;;1.13;1.13;;;;;;;;;;5118587;27;20665;-62
2022/05/18 17:08:47;;;;;;;0.90;0.90;;;;;;;;;;5115872;27;20833;-62
2022/05/18 17:11:36;;;;;;;1.00;1.00;;;;;;;;;;5107174;27;20574;-62
2022/05/18 17:14:25;;;;;;;1.10;1.10;;;;;;;;;;5107365;27;20210;-62